sensor_id;sensor_type;location;lat;lon;timestamp;pressure;altitude;pressure_sealevel;temperature
72405;BMP280;60395;52.020;113.548;2022-08-06T00:02:02;92051.78;;;37.49
72405;BMP280;60395;52.020;113.548;2022-08-06T00:05:06;92055.94;;;37.64
72405;BMP280;60395;52.020;113.548;2022-08-06T00:08:09;92061.47;;;37.68
72405;BMP280;60395;52.020;113.548;2022-08-06T00:11:15;92068.84;;;38.03
72405;BMP280;60395;52.020;113.548;2022-08-06T00:14:24;92071.25;;;38.01
72405;BMP280;60395;52.020;113.548;2022-08-06T00:17:27;92067.16;;;37.86
72405;BMP280;60395;52.020;113.548;2022-08-06T00:20:34;92072.50;;;37.73
72405;BMP280;60395;52.020;113.548;2022-08-06T00:23:43;92058.91;;;37.57
72405;BMP280;60395;52.020;113.548;2022-08-06T00:26:56;92063.00;;;37.43
72405;BMP280;60395;52.020;113.548;2022-08-06T00:30:13;92059.53;;;37.33
72405;BMP280;60395;52.020;113.548;2022-08-06T00:33:23;92054.94;;;37.56
72405;BMP280;60395;52.020;113.548;2022-08-06T00:36:30;92056.84;;;37.62
72405;BMP280;60395;52.020;113.548;2022-08-06T00:39:34;92033.97;;;37.59
72405;BMP280;60395;52.020;113.548;2022-08-06T00:42:37;92027.81;;;37.54
72405;BMP280;60395;52.020;113.548;2022-08-06T00:45:43;92011.31;;;37.21
72405;BMP280;60395;52.020;113.548;2022-08-06T00:48:49;92015.16;;;37.13
72405;BMP280;60395;52.020;113.548;2022-08-06T00:51:55;92005.94;;;36.05
72405;BMP280;60395;52.020;113.548;2022-08-06T00:54:58;91999.13;;;34.75
72405;BMP280;60395;52.020;113.548;2022-08-06T00:58:01;92001.34;;;34.25
72405;BMP280;60395;52.020;113.548;2022-08-06T01:01:04;91998.91;;;31.11
72405;BMP280;60395;52.020;113.548;2022-08-06T01:04:19;91992.47;;;28.89
72405;BMP280;60395;52.020;113.548;2022-08-06T01:07:27;91984.81;;;27.57
72405;BMP280;60395;52.020;113.548;2022-08-06T01:10:50;92008.31;;;26.74
72405;BMP280;60395;52.020;113.548;2022-08-06T01:13:53;91991.66;;;26.06
72405;BMP280;60395;52.020;113.548;2022-08-06T01:17:24;91994.25;;;25.63
72405;BMP280;60395;52.020;113.548;2022-08-06T01:28:02;91994.06;;;24.34
72405;BMP280;60395;52.020;113.548;2022-08-06T01:31:13;91987.59;;;24.07
72405;BMP280;60395;52.020;113.548;2022-08-06T01:34:40;91990.31;;;23.90
72405;BMP280;60395;52.020;113.548;2022-08-06T01:38:21;91976.53;;;23.62
72405;BMP280;60395;52.020;113.548;2022-08-06T01:41:27;91976.94;;;23.41
72405;BMP280;60395;52.020;113.548;2022-08-06T01:45:02;91985.00;;;23.06
72405;BMP280;60395;52.020;113.548;2022-08-06T01:48:10;91980.28;;;22.90
72405;BMP280;60395;52.020;113.548;2022-08-06T01:51:17;91971.78;;;22.70
72405;BMP280;60395;52.020;113.548;2022-08-06T01:54:44;91968.94;;;22.72
72405;BMP280;60395;52.020;113.548;2022-08-06T01:57:55;91966.72;;;22.58
72405;BMP280;60395;52.020;113.548;2022-08-06T02:01:22;91974.47;;;22.53
72405;BMP280;60395;52.020;113.548;2022-08-06T02:04:30;91963.44;;;22.57
72405;BMP280;60395;52.020;113.548;2022-08-06T02:07:41;91964.06;;;22.58
72405;BMP280;60395;52.020;113.548;2022-08-06T02:11:05;91964.72;;;22.75
72405;BMP280;60395;52.020;113.548;2022-08-06T02:14:30;91955.69;;;22.44
72405;BMP280;60395;52.020;113.548;2022-08-06T02:17:40;91947.19;;;22.42
72405;BMP280;60395;52.020;113.548;2022-08-06T02:21:06;91943.13;;;22.52
72405;BMP280;60395;52.020;113.548;2022-08-06T02:24:21;91949.56;;;22.37
72405;BMP280;60395;52.020;113.548;2022-08-06T02:27:28;91939.59;;;22.19
72405;BMP280;60395;52.020;113.548;2022-08-06T02:30:46;91942.13;;;22.21
72405;BMP280;60395;52.020;113.548;2022-08-06T02:33:50;91945.44;;;22.21
72405;BMP280;60395;52.020;113.548;2022-08-06T02:37:18;91940.69;;;22.13
72405;BMP280;60395;52.020;113.548;2022-08-06T02:40:47;91938.00;;;22.05
72405;BMP280;60395;52.020;113.548;2022-08-06T02:43:55;91942.88;;;22.02
72405;BMP280;60395;52.020;113.548;2022-08-06T02:47:17;91940.38;;;22.17
72405;BMP280;60395;52.020;113.548;2022-08-06T02:50:29;91931.59;;;22.19
72405;BMP280;60395;52.020;113.548;2022-08-06T02:53:43;91955.22;;;22.42
72405;BMP280;60395;52.020;113.548;2022-08-06T02:57:08;91952.22;;;22.46
72405;BMP280;60395;52.020;113.548;2022-08-06T03:00:15;91957.56;;;22.46
72405;BMP280;60395;52.020;113.548;2022-08-06T03:03:21;91955.72;;;22.53
72405;BMP280;60395;52.020;113.548;2022-08-06T03:06:37;91954.63;;;22.59
72405;BMP280;60395;52.020;113.548;2022-08-06T03:09:47;91949.91;;;22.68
72405;BMP280;60395;52.020;113.548;2022-08-06T03:12:54;91945.34;;;22.75
72405;BMP280;60395;52.020;113.548;2022-08-06T03:16:05;91948.78;;;22.73
72405;BMP280;60395;52.020;113.548;2022-08-06T03:19:26;91949.75;;;22.70
72405;BMP280;60395;52.020;113.548;2022-08-06T03:22:52;91945.03;;;22.70
72405;BMP280;60395;52.020;113.548;2022-08-06T03:25:57;91938.41;;;22.61
72405;BMP280;60395;52.020;113.548;2022-08-06T03:29:06;91940.59;;;22.58
72405;BMP280;60395;52.020;113.548;2022-08-06T03:32:12;91938.41;;;22.69
72405;BMP280;60395;52.020;113.548;2022-08-06T03:35:37;91934.16;;;22.81
72405;BMP280;60395;52.020;113.548;2022-08-06T03:39:17;91930.66;;;22.99
72405;BMP280;60395;52.020;113.548;2022-08-06T03:42:23;91933.03;;;22.95
72405;BMP280;60395;52.020;113.548;2022-08-06T03:45:43;91934.72;;;22.98
72405;BMP280;60395;52.020;113.548;2022-08-06T03:48:59;91924.53;;;23.01
72405;BMP280;60395;52.020;113.548;2022-08-06T03:52:06;91928.63;;;23.08
72405;BMP280;60395;52.020;113.548;2022-08-06T03:55:22;91921.66;;;23.11
72405;BMP280;60395;52.020;113.548;2022-08-06T03:58:31;91933.34;;;23.08
72405;BMP280;60395;52.020;113.548;2022-08-06T04:01:37;91924.03;;;23.07
72405;BMP280;60395;52.020;113.548;2022-08-06T04:04:51;91928.63;;;23.08
72405;BMP280;60395;52.020;113.548;2022-08-06T04:08:05;91921.47;;;23.22
72405;BMP280;60395;52.020;113.548;2022-08-06T04:11:08;91931.56;;;23.22
72405;BMP280;60395;52.020;113.548;2022-08-06T04:14:33;91933.72;;;23.45
72405;BMP280;60395;52.020;113.548;2022-08-06T04:17:42;91923.81;;;23.35
72405;BMP280;60395;52.020;113.548;2022-08-06T04:20:52;91918.16;;;23.30
72405;BMP280;60395;52.020;113.548;2022-08-06T04:24:15;91924.47;;;23.27
72405;BMP280;60395;52.020;113.548;2022-08-06T04:27:19;91915.47;;;23.30
72405;BMP280;60395;52.020;113.548;2022-08-06T04:30:23;91916.22;;;23.46
72405;BMP280;60395;52.020;113.548;2022-08-06T04:33:31;91914.03;;;23.40
72405;BMP280;60395;52.020;113.548;2022-08-06T04:36:37;91912.63;;;23.32
72405;BMP280;60395;52.020;113.548;2022-08-06T04:39:47;91917.53;;;23.30
72405;BMP280;60395;52.020;113.548;2022-08-06T04:42:52;91913.25;;;23.33
72405;BMP280;60395;52.020;113.548;2022-08-06T04:45:56;91912.31;;;23.36
72405;BMP280;60395;52.020;113.548;2022-08-06T04:49:18;91908.81;;;23.38
72405;BMP280;60395;52.020;113.548;2022-08-06T04:52:23;91910.88;;;23.37
72405;BMP280;60395;52.020;113.548;2022-08-06T04:55:39;91912.47;;;23.34
72405;BMP280;60395;52.020;113.548;2022-08-06T04:59:02;91907.56;;;23.37
72405;BMP280;60395;52.020;113.548;2022-08-06T05:02:05;91907.41;;;23.39
72405;BMP280;60395;52.020;113.548;2022-08-06T05:05:09;91908.47;;;23.50
72405;BMP280;60395;52.020;113.548;2022-08-06T05:08:18;91895.69;;;23.51
72405;BMP280;60395;52.020;113.548;2022-08-06T05:11:31;91899.94;;;23.56
72405;BMP280;60395;52.020;113.548;2022-08-06T05:15:10;91900.66;;;23.72
72405;BMP280;60395;52.020;113.548;2022-08-06T05:18:20;91894.78;;;23.78
72405;BMP280;60395;52.020;113.548;2022-08-06T05:21:45;91892.56;;;23.80
72405;BMP280;60395;52.020;113.548;2022-08-06T05:25:10;91902.03;;;23.79
72405;BMP280;60395;52.020;113.548;2022-08-06T05:28:24;91884.72;;;23.78
72405;BMP280;60395;52.020;113.548;2022-08-06T05:31:36;91884.34;;;23.82
72405;BMP280;60395;52.020;113.548;2022-08-06T05:34:41;91893.81;;;23.81
72405;BMP280;60395;52.020;113.548;2022-08-06T05:37:53;91880.69;;;23.86
72405;BMP280;60395;52.020;113.548;2022-08-06T05:41:10;91876.44;;;23.89
72405;BMP280;60395;52.020;113.548;2022-08-06T05:44:14;91876.78;;;23.85
72405;BMP280;60395;52.020;113.548;2022-08-06T05:47:20;91871.41;;;23.85
72405;BMP280;60395;52.020;113.548;2022-08-06T05:50:29;91867.91;;;23.86
72405;BMP280;60395;52.020;113.548;2022-08-06T05:53:49;91874.50;;;23.96
72405;BMP280;60395;52.020;113.548;2022-08-06T05:57:24;91861.53;;;23.99
72405;BMP280;60395;52.020;113.548;2022-08-06T06:00:43;91864.84;;;23.99
72405;BMP280;60395;52.020;113.548;2022-08-06T06:03:46;91869.63;;;23.90
72405;BMP280;60395;52.020;113.548;2022-08-06T06:06:51;91863.81;;;23.87
72405;BMP280;60395;52.020;113.548;2022-08-06T06:09:55;91862.97;;;23.98
72405;BMP280;60395;52.020;113.548;2022-08-06T06:13:06;91859.22;;;23.86
72405;BMP280;60395;52.020;113.548;2022-08-06T06:16:36;91857.66;;;23.89
72405;BMP280;60395;52.020;113.548;2022-08-06T06:23:58;91845.25;;;23.85
72405;BMP280;60395;52.020;113.548;2022-08-06T06:27:10;91845.69;;;23.88
72405;BMP280;60395;52.020;113.548;2022-08-06T06:30:55;91846.22;;;23.97
72405;BMP280;60395;52.020;113.548;2022-08-06T06:34:14;91842.41;;;24.03
72405;BMP280;60395;52.020;113.548;2022-08-06T06:48:12;91836.84;;;24.13
72405;BMP280;60395;52.020;113.548;2022-08-06T06:51:31;91834.94;;;24.12
72405;BMP280;60395;52.020;113.548;2022-08-06T06:55:02;91832.03;;;23.99
72405;BMP280;60395;52.020;113.548;2022-08-06T06:58:30;91835.69;;;23.95
72405;BMP280;60395;52.020;113.548;2022-08-06T07:01:35;91825.19;;;23.84
72405;BMP280;60395;52.020;113.548;2022-08-06T07:04:41;91828.31;;;23.87
72405;BMP280;60395;52.020;113.548;2022-08-06T07:07:46;91827.69;;;23.86
72405;BMP280;60395;52.020;113.548;2022-08-06T07:10:52;91821.69;;;23.86
72405;BMP280;60395;52.020;113.548;2022-08-06T07:13:59;91810.00;;;23.89
72405;BMP280;60395;52.020;113.548;2022-08-06T07:17:04;91817.72;;;23.93
72405;BMP280;60395;52.020;113.548;2022-08-06T07:20:29;91822.00;;;23.90
72405;BMP280;60395;52.020;113.548;2022-08-06T07:23:33;91816.53;;;23.84
72405;BMP280;60395;52.020;113.548;2022-08-06T07:26:57;91814.75;;;23.89
72405;BMP280;60395;52.020;113.548;2022-08-06T07:30:04;91810.56;;;23.99
72405;BMP280;60395;52.020;113.548;2022-08-06T07:33:10;91811.22;;;24.14
72405;BMP280;60395;52.020;113.548;2022-08-06T07:36:16;91813.22;;;24.22
72405;BMP280;60395;52.020;113.548;2022-08-06T07:39:27;91816.38;;;24.25
72405;BMP280;60395;52.020;113.548;2022-08-06T07:42:36;91815.13;;;24.24
72405;BMP280;60395;52.020;113.548;2022-08-06T07:45:40;91819.59;;;24.19
72405;BMP280;60395;52.020;113.548;2022-08-06T07:49:03;91821.91;;;24.23
72405;BMP280;60395;52.020;113.548;2022-08-06T07:52:13;91824.16;;;24.20
72405;BMP280;60395;52.020;113.548;2022-08-06T07:55:28;91817.44;;;24.13
72405;BMP280;60395;52.020;113.548;2022-08-06T07:58:41;91820.47;;;23.85
72405;BMP280;60395;52.020;113.548;2022-08-06T08:01:47;91822.69;;;23.50
72405;BMP280;60395;52.020;113.548;2022-08-06T08:04:51;91808.41;;;23.45
72405;BMP280;60395;52.020;113.548;2022-08-06T08:08:17;91811.06;;;23.45
72405;BMP280;60395;52.020;113.548;2022-08-06T08:11:26;91806.56;;;23.59
72405;BMP280;60395;52.020;113.548;2022-08-06T08:14:49;91820.28;;;23.63
72405;BMP280;60395;52.020;113.548;2022-08-06T08:17:54;91814.72;;;23.42
72405;BMP280;60395;52.020;113.548;2022-08-06T08:21:00;91828.22;;;23.16
72405;BMP280;60395;52.020;113.548;2022-08-06T08:24:05;91826.63;;;23.10
72405;BMP280;60395;52.020;113.548;2022-08-06T08:27:11;91828.25;;;23.07
72405;BMP280;60395;52.020;113.548;2022-08-06T08:30:39;91823.03;;;23.14
72405;BMP280;60395;52.020;113.548;2022-08-06T08:33:42;91819.97;;;23.35
72405;BMP280;60395;52.020;113.548;2022-08-06T08:36:46;91819.03;;;23.54
72405;BMP280;60395;52.020;113.548;2022-08-06T08:39:50;91819.94;;;23.67
72405;BMP280;60395;52.020;113.548;2022-08-06T08:42:58;91819.94;;;23.67
72405;BMP280;60395;52.020;113.548;2022-08-06T08:46:07;91829.63;;;23.56
72405;BMP280;60395;52.020;113.548;2022-08-06T08:49:42;91816.47;;;23.69
72405;BMP280;60395;52.020;113.548;2022-08-06T08:52:58;91822.41;;;23.78
72405;BMP280;60395;52.020;113.548;2022-08-06T08:56:05;91816.53;;;23.84
72405;BMP280;60395;52.020;113.548;2022-08-06T08:59:29;91812.22;;;23.87
72405;BMP280;60395;52.020;113.548;2022-08-06T09:02:54;91814.47;;;23.84
72405;BMP280;60395;52.020;113.548;2022-08-06T09:05:58;91807.31;;;23.89
72405;BMP280;60395;52.020;113.548;2022-08-06T09:09:04;91816.16;;;23.64
72405;BMP280;60395;52.020;113.548;2022-08-06T09:12:08;91813.91;;;23.43
72405;BMP280;60395;52.020;113.548;2022-08-06T09:15:32;91805.00;;;23.30
72405;BMP280;60395;52.020;113.548;2022-08-06T09:18:41;91818.97;;;23.39
72405;BMP280;60395;52.020;113.548;2022-08-06T09:21:46;91819.56;;;23.48
72405;BMP280;60395;52.020;113.548;2022-08-06T09:24:52;91827.06;;;23.62
72405;BMP280;60395;52.020;113.548;2022-08-06T09:27:55;91825.34;;;23.59
72405;BMP280;60395;52.020;113.548;2022-08-06T09:31:11;91823.13;;;23.61
72405;BMP280;60395;52.020;113.548;2022-08-06T09:34:33;91819.19;;;23.60
72405;BMP280;60395;52.020;113.548;2022-08-06T09:37:43;91824.91;;;23.48
72405;BMP280;60395;52.020;113.548;2022-08-06T09:44:10;91834.97;;;23.15
72405;BMP280;60395;52.020;113.548;2022-08-06T09:47:36;91828.25;;;23.07
72405;BMP280;60395;52.020;113.548;2022-08-06T09:50:44;91824.91;;;23.15
72405;BMP280;60395;52.020;113.548;2022-08-06T09:53:58;91823.25;;;23.36
72405;BMP280;60395;52.020;113.548;2022-08-06T09:57:23;91823.66;;;23.47
72405;BMP280;60395;52.020;113.548;2022-08-06T10:00:38;91831.31;;;23.59
72405;BMP280;60395;52.020;113.548;2022-08-06T10:03:41;91834.13;;;23.66
72405;BMP280;60395;52.020;113.548;2022-08-06T10:07:05;91835.22;;;23.37
72405;BMP280;60395;52.020;113.548;2022-08-06T10:10:09;91833.53;;;23.25
72405;BMP280;60395;52.020;113.548;2022-08-06T10:13:30;91842.38;;;23.23
72405;BMP280;60395;52.020;113.548;2022-08-06T10:17:09;91841.56;;;23.25
72405;BMP280;60395;52.020;113.548;2022-08-06T10:20:15;91841.34;;;23.03
72405;BMP280;60395;52.020;113.548;2022-08-06T10:23:20;91844.84;;;22.84
72405;BMP280;60395;52.020;113.548;2022-08-06T10:26:31;91856.81;;;22.77
72405;BMP280;60395;52.020;113.548;2022-08-06T10:29:56;91850.69;;;22.70
72405;BMP280;60395;52.020;113.548;2022-08-06T10:33:10;91856.34;;;22.66
72405;BMP280;60395;52.020;113.548;2022-08-06T10:36:40;91850.69;;;22.61
72405;BMP280;60395;52.020;113.548;2022-08-06T10:39:47;91849.59;;;22.58
72405;BMP280;60395;52.020;113.548;2022-08-06T10:43:11;91843.31;;;22.53
72405;BMP280;60395;52.020;113.548;2022-08-06T10:46:15;91846.78;;;22.43
72405;BMP280;60395;52.020;113.548;2022-08-06T10:49:22;91850.88;;;22.33
72405;BMP280;60395;52.020;113.548;2022-08-06T10:52:46;91861.25;;;22.20
72405;BMP280;60395;52.020;113.548;2022-08-06T10:55:51;91865.31;;;22.11
72405;BMP280;60395;52.020;113.548;2022-08-06T10:58:56;91867.84;;;22.04
72405;BMP280;60395;52.020;113.548;2022-08-06T11:02:32;91868.94;;;21.99
72405;BMP280;60395;52.020;113.548;2022-08-06T11:05:39;91876.59;;;21.86
72405;BMP280;60395;52.020;113.548;2022-08-06T11:09:02;91879.75;;;21.80
72405;BMP280;60395;52.020;113.548;2022-08-06T11:12:23;91889.44;;;21.66
72405;BMP280;60395;52.020;113.548;2022-08-06T11:15:36;91890.66;;;21.58
72405;BMP280;60395;52.020;113.548;2022-08-06T11:18:57;91895.50;;;21.47
72405;BMP280;60395;52.020;113.548;2022-08-06T11:22:08;91894.66;;;21.32
72405;BMP280;60395;52.020;113.548;2022-08-06T11:25:13;91904.63;;;21.23
72405;BMP280;60395;52.020;113.548;2022-08-06T11:31:39;91908.56;;;20.96
72405;BMP280;60395;52.020;113.548;2022-08-06T11:34:58;91916.94;;;20.81
72405;BMP280;60395;52.020;113.548;2022-08-06T11:38:09;91917.78;;;20.69
72405;BMP280;60395;52.020;113.548;2022-08-06T11:41:31;91921.28;;;20.57
72405;BMP280;60395;52.020;113.548;2022-08-06T11:45:02;91922.63;;;20.48
72405;BMP280;60395;52.020;113.548;2022-08-06T11:48:25;91927.03;;;20.32
72405;BMP280;60395;52.020;113.548;2022-08-06T11:51:37;91932.44;;;20.21
72405;BMP280;60395;52.020;113.548;2022-08-06T12:01:18;91943.88;;;19.90
72405;BMP280;60395;52.020;113.548;2022-08-06T12:07:44;91948.97;;;19.84
72405;BMP280;60395;52.020;113.548;2022-08-06T12:11:25;91938.44;;;19.71
72405;BMP280;60395;52.020;113.548;2022-08-06T12:14:40;91952.81;;;19.66
72405;BMP280;60395;52.020;113.548;2022-08-06T12:21:21;91958.28;;;19.53
72405;BMP280;60395;52.020;113.548;2022-08-06T12:24:28;91962.09;;;19.45
72405;BMP280;60395;52.020;113.548;2022-08-06T12:27:55;91964.00;;;19.36
72405;BMP280;60395;52.020;113.548;2022-08-06T12:30:59;91967.97;;;19.27
72405;BMP280;60395;52.020;113.548;2022-08-06T12:34:24;91980.50;;;19.18
72405;BMP280;60395;52.020;113.548;2022-08-06T12:41:05;91991.91;;;19.06
72405;BMP280;60395;52.020;113.548;2022-08-06T12:44:12;91999.63;;;18.99
72405;BMP280;60395;52.020;113.548;2022-08-06T12:47:22;92002.16;;;18.90
72405;BMP280;60395;52.020;113.548;2022-08-06T12:50:45;92003.00;;;18.87
72405;BMP280;60395;52.020;113.548;2022-08-06T12:53:54;92004.66;;;18.82
72405;BMP280;60395;52.020;113.548;2022-08-06T12:56:59;92018.59;;;18.82
72405;BMP280;60395;52.020;113.548;2022-08-06T13:00:09;92024.16;;;18.78
72405;BMP280;60395;52.020;113.548;2022-08-06T13:03:18;92022.28;;;18.77
72405;BMP280;60395;52.020;113.548;2022-08-06T13:06:25;92029.09;;;18.74
72405;BMP280;60395;52.020;113.548;2022-08-06T13:09:35;92026.56;;;18.72
72405;BMP280;60395;52.020;113.548;2022-08-06T13:13:01;92034.53;;;18.72
72405;BMP280;60395;52.020;113.548;2022-08-06T13:16:25;92037.06;;;18.63
72405;BMP280;60395;52.020;113.548;2022-08-06T13:19:29;92046.03;;;18.58
72405;BMP280;60395;52.020;113.548;2022-08-06T13:22:50;92039.56;;;18.55
72405;BMP280;60395;52.020;113.548;2022-08-06T13:25:53;92049.78;;;18.50
72405;BMP280;60395;52.020;113.548;2022-08-06T13:29:22;92047.09;;;18.40
72405;BMP280;60395;52.020;113.548;2022-08-06T13:32:49;92059.19;;;18.26
72405;BMP280;60395;52.020;113.548;2022-08-06T13:36:06;92065.19;;;18.14
72405;BMP280;60395;52.020;113.548;2022-08-06T13:39:24;92071.06;;;18.04
72405;BMP280;60395;52.020;113.548;2022-08-06T13:42:28;92067.81;;;17.91
72405;BMP280;60395;52.020;113.548;2022-08-06T13:45:36;92067.00;;;17.82
72405;BMP280;60395;52.020;113.548;2022-08-06T13:49:00;92069.47;;;17.73
72405;BMP280;60395;52.020;113.548;2022-08-06T13:52:16;92079.28;;;17.64
72405;BMP280;60395;52.020;113.548;2022-08-06T13:55:24;92085.56;;;17.58
72405;BMP280;60395;52.020;113.548;2022-08-06T13:58:48;92085.47;;;17.48
72405;BMP280;60395;52.020;113.548;2022-08-06T14:01:52;92086.44;;;17.42
72405;BMP280;60395;52.020;113.548;2022-08-06T14:04:55;92087.50;;;17.35
72405;BMP280;60395;52.020;113.548;2022-08-06T14:07:58;92090.47;;;17.29
72405;BMP280;60395;52.020;113.548;2022-08-06T14:11:01;92102.16;;;17.21
72405;BMP280;60395;52.020;113.548;2022-08-06T14:14:04;92105.44;;;17.09
72405;BMP280;60395;52.020;113.548;2022-08-06T14:17:08;92106.16;;;16.95
72405;BMP280;60395;52.020;113.548;2022-08-06T14:20:11;92108.69;;;16.84
72405;BMP280;60395;52.020;113.548;2022-08-06T14:23:25;92106.78;;;16.70
72405;BMP280;60395;52.020;113.548;2022-08-06T14:26:48;92116.50;;;16.61
72405;BMP280;60395;52.020;113.548;2022-08-06T14:29:57;92110.22;;;16.54
72405;BMP280;60395;52.020;113.548;2022-08-06T14:33:20;92106.38;;;16.51
72405;BMP280;60395;52.020;113.548;2022-08-06T14:36:37;92110.59;;;16.46
72405;BMP280;60395;52.020;113.548;2022-08-06T14:39:40;92115.41;;;16.43
72405;BMP280;60395;52.020;113.548;2022-08-06T14:43:01;92117.50;;;16.41
72405;BMP280;60395;52.020;113.548;2022-08-06T14:46:26;92115.25;;;16.33
72405;BMP280;60395;52.020;113.548;2022-08-06T14:49:31;92123.72;;;16.23
72405;BMP280;60395;52.020;113.548;2022-08-06T14:52:53;92122.59;;;16.18
72405;BMP280;60395;52.020;113.548;2022-08-06T14:55:57;92117.59;;;16.12
72405;BMP280;60395;52.020;113.548;2022-08-06T14:59:09;92122.75;;;16.01
72405;BMP280;60395;52.020;113.548;2022-08-06T15:02:14;92129.59;;;15.96
72405;BMP280;60395;52.020;113.548;2022-08-06T15:05:17;92120.66;;;15.89
72405;BMP280;60395;52.020;113.548;2022-08-06T15:08:41;92124.94;;;15.82
72405;BMP280;60395;52.020;113.548;2022-08-06T15:11:50;92124.06;;;15.73
72405;BMP280;60395;52.020;113.548;2022-08-06T15:15:03;92123.16;;;15.64
72405;BMP280;60395;52.020;113.548;2022-08-06T15:18:16;92127.63;;;15.53
72405;BMP280;60395;52.020;113.548;2022-08-06T15:21:40;92126.06;;;15.43
72405;BMP280;60395;52.020;113.548;2022-08-06T15:24:55;92137.56;;;15.38
72405;BMP280;60395;52.020;113.548;2022-08-06T15:27:58;92139.22;;;15.31
72405;BMP280;60395;52.020;113.548;2022-08-06T15:31:04;92132.97;;;15.21
72405;BMP280;60395;52.020;113.548;2022-08-06T15:34:08;92135.28;;;15.15
72405;BMP280;60395;52.020;113.548;2022-08-06T15:37:14;92135.69;;;15.05
72405;BMP280;60395;52.020;113.548;2022-08-06T15:40:38;92141.97;;;14.97
72405;BMP280;60395;52.020;113.548;2022-08-06T15:43:44;92146.97;;;14.89
72405;BMP280;60395;52.020;113.548;2022-08-06T15:46:53;92142.66;;;14.81
72405;BMP280;60395;52.020;113.548;2022-08-06T15:49:56;92147.00;;;14.72
72405;BMP280;60395;52.020;113.548;2022-08-06T15:53:06;92142.03;;;14.64
72405;BMP280;60395;52.020;113.548;2022-08-06T15:56:26;92145.75;;;14.54
72405;BMP280;60395;52.020;113.548;2022-08-06T15:59:35;92144.00;;;14.49
72405;BMP280;60395;52.020;113.548;2022-08-06T16:02:53;92144.19;;;14.45
72405;BMP280;60395;52.020;113.548;2022-08-06T16:05:56;92142.19;;;14.45
72405;BMP280;60395;52.020;113.548;2022-08-06T16:09:13;92136.31;;;14.43
72405;BMP280;60395;52.020;113.548;2022-08-06T16:12:28;92138.41;;;14.40
72405;BMP280;60395;52.020;113.548;2022-08-06T16:15:31;92136.50;;;14.39
72405;BMP280;60395;52.020;113.548;2022-08-06T16:18:38;92129.28;;;14.37
72405;BMP280;60395;52.020;113.548;2022-08-06T16:21:50;92143.31;;;14.34
72405;BMP280;60395;52.020;113.548;2022-08-06T16:24:53;92143.31;;;14.34
72405;BMP280;60395;52.020;113.548;2022-08-06T16:27:58;92143.88;;;14.36
72405;BMP280;60395;52.020;113.548;2022-08-06T16:31:01;92142.91;;;14.27
72405;BMP280;60395;52.020;113.548;2022-08-06T16:34:17;92146.44;;;14.22
72405;BMP280;60395;52.020;113.548;2022-08-06T16:37:31;92144.75;;;14.14
72405;BMP280;60395;52.020;113.548;2022-08-06T16:40:41;92147.06;;;14.05
72405;BMP280;60395;52.020;113.548;2022-08-06T16:43:49;92151.69;;;14.05
72405;BMP280;60395;52.020;113.548;2022-08-06T16:46:54;92150.56;;;14.00
72405;BMP280;60395;52.020;113.548;2022-08-06T16:49:58;92146.75;;;13.97
72405;BMP280;60395;52.020;113.548;2022-08-06T16:53:22;92144.22;;;13.93
72405;BMP280;60395;52.020;113.548;2022-08-06T16:56:45;92151.75;;;13.86
72405;BMP280;60395;52.020;113.548;2022-08-06T16:59:49;92157.25;;;13.80
72405;BMP280;60395;52.020;113.548;2022-08-06T17:03:01;92149.66;;;13.72
72405;BMP280;60395;52.020;113.548;2022-08-06T17:06:09;92157.88;;;13.64
72405;BMP280;60395;52.020;113.548;2022-08-06T17:09:18;92158.03;;;13.60
72405;BMP280;60395;52.020;113.548;2022-08-06T17:12:23;92150.41;;;13.52
72405;BMP280;60395;52.020;113.548;2022-08-06T17:15:28;92162.47;;;13.47
72405;BMP280;60395;52.020;113.548;2022-08-06T17:18:39;92162.69;;;13.41
72405;BMP280;60395;52.020;113.548;2022-08-06T17:22:02;92166.97;;;13.32
72405;BMP280;60395;52.020;113.548;2022-08-06T17:25:09;92165.41;;;13.20
72405;BMP280;60395;52.020;113.548;2022-08-06T17:28:23;92162.41;;;13.12
72405;BMP280;60395;52.020;113.548;2022-08-06T17:31:31;92158.06;;;13.04
72405;BMP280;60395;52.020;113.548;2022-08-06T17:34:54;92145.94;;;12.92
72405;BMP280;60395;52.020;113.548;2022-08-06T17:38:00;92153.34;;;12.88
72405;BMP280;60395;52.020;113.548;2022-08-06T17:41:04;92150.34;;;12.79
72405;BMP280;60395;52.020;113.548;2022-08-06T17:44:12;92152.41;;;12.77
72405;BMP280;60395;52.020;113.548;2022-08-06T17:47:18;92155.75;;;12.75
72405;BMP280;60395;52.020;113.548;2022-08-06T17:50:22;92159.28;;;12.68
72405;BMP280;60395;52.020;113.548;2022-08-06T17:53:43;92155.44;;;12.65
72405;BMP280;60395;52.020;113.548;2022-08-06T17:56:55;92154.94;;;12.60
72405;BMP280;60395;52.020;113.548;2022-08-06T18:00:03;92158.31;;;12.57
72405;BMP280;60395;52.020;113.548;2022-08-06T18:03:12;92163.72;;;12.53
72405;BMP280;60395;52.020;113.548;2022-08-06T18:06:25;92159.16;;;12.51
72405;BMP280;60395;52.020;113.548;2022-08-06T18:09:30;92164.50;;;12.49
72405;BMP280;60395;52.020;113.548;2022-08-06T18:12:54;92162.59;;;12.48
72405;BMP280;60395;52.020;113.548;2022-08-06T18:16:00;92165.97;;;12.44
72405;BMP280;60395;52.020;113.548;2022-08-06T18:19:04;92178.00;;;12.39
72405;BMP280;60395;52.020;113.548;2022-08-06T18:22:11;92180.19;;;12.32
72405;BMP280;60395;52.020;113.548;2022-08-06T18:25:24;92178.44;;;12.25
72405;BMP280;60395;52.020;113.548;2022-08-06T18:28:51;92177.22;;;12.22
72405;BMP280;60395;52.020;113.548;2022-08-06T18:31:54;92185.19;;;12.20
72405;BMP280;60395;52.020;113.548;2022-08-06T18:35:05;92193.13;;;12.18
72405;BMP280;60395;52.020;113.548;2022-08-06T18:38:08;92205.00;;;12.17
72405;BMP280;60395;52.020;113.548;2022-08-06T18:41:13;92204.38;;;12.16
72405;BMP280;60395;52.020;113.548;2022-08-06T18:44:17;92203.09;;;12.15